createdAt,value
2023-04-16T00:00:30.417Z,100657.77
2023-04-16T00:01:36.647Z,100658.56
2023-04-16T00:02:40.032Z,100655.91
2023-04-16T00:03:46.434Z,100662.94
2023-04-16T00:04:50.040Z,100662.94
2023-04-16T00:05:54.904Z,100661.16
2023-04-16T00:06:57.842Z,100658.52
2023-04-16T00:08:04.684Z,100666.41
2023-04-16T00:09:10.892Z,100658.47
2023-04-16T00:10:17.072Z,100663.67
2023-04-16T00:11:21.068Z,100664.58
2023-04-16T00:12:27.302Z,100666.36
2023-04-16T00:13:33.242Z,100673.48
2023-04-16T00:14:36.458Z,100665.49
2023-04-16T00:15:41.289Z,100669.00
2023-04-16T00:16:45.502Z,100664.58
2023-04-16T00:17:49.665Z,100667.23
2023-04-16T00:18:52.451Z,100665.41
2023-04-16T00:19:56.288Z,100663.58
2023-04-16T00:22:24.597Z,100667.13
2023-04-16T00:23:27.984Z,100665.31
2023-04-16T00:24:33.995Z,100666.27
2023-04-16T00:25:42.369Z,100668.00
2023-04-16T00:26:46.430Z,100665.41
2023-04-16T00:27:50.017Z,100670.70
2023-04-16T00:28:55.312Z,100672.47
2023-04-16T00:30:00.637Z,100665.45
2023-04-16T00:31:05.561Z,100667.23
2023-04-16T00:32:13.092Z,100665.49
2023-04-16T00:33:20.268Z,100668.14
2023-04-16T00:34:31.499Z,100665.59
2023-04-16T00:35:36.008Z,100668.19
2023-04-16T00:36:41.229Z,100670.78
2023-04-16T00:37:46.214Z,100662.94
2023-04-16T00:38:52.938Z,100665.49
2023-04-16T00:39:57.362Z,100662.89
2023-04-16T00:41:03.241Z,100668.19
2023-04-16T00:42:06.750Z,100671.65
2023-04-16T00:43:11.725Z,100672.61
2023-04-16T00:44:17.724Z,100670.78
2023-04-16T00:45:24.299Z,100670.78
2023-04-16T00:46:30.248Z,100669.05
2023-04-16T00:47:35.325Z,100669.14
2023-04-16T00:48:40.541Z,100669.27
2023-04-16T00:49:46.783Z,100671.00
2023-04-16T00:50:54.946Z,100663.98
2023-04-16T00:52:07.290Z,100671.87
2023-04-16T00:53:13.936Z,100674.44
2023-04-16T00:54:20.805Z,100675.42
2023-04-16T00:55:23.588Z,100675.34
2023-04-16T00:56:28.986Z,100672.70
2023-04-16T00:57:33.283Z,100673.69
2023-04-16T00:58:38.705Z,100672.83
2023-04-16T00:59:43.178Z,100671.00
2023-04-16T01:00:49.169Z,100681.58
2023-04-16T01:01:54.169Z,100673.64
2023-04-16T01:02:59.852Z,100677.99
2023-04-16T01:04:02.962Z,100670.01
2023-04-16T01:05:08.341Z,100668.28
2023-04-16T01:06:15.440Z,100669.09
2023-04-16T01:07:20.996Z,100673.48
2023-04-16T01:08:24.907Z,100672.70
2023-04-16T01:09:27.779Z,100672.61
2023-04-16T01:10:34.789Z,100669.05
2023-04-16T01:11:37.838Z,100677.91
2023-04-16T01:12:41.532Z,100677.91
2023-04-16T01:13:46.328Z,100671.74
2023-04-16T01:14:51.057Z,100672.61
2023-04-16T01:15:55.643Z,100672.61
2023-04-16T01:17:03.231Z,100672.61
2023-04-16T01:18:19.528Z,100686.75
2023-04-16T01:19:23.434Z,100677.91
2023-04-16T01:20:42.545Z,100682.23
2023-04-16T01:21:48.756Z,100676.95
2023-04-16T01:22:53.345Z,100672.52
2023-04-16T01:23:56.618Z,100677.03
2023-04-16T01:25:02.590Z,100684.06
2023-04-16T01:26:09.705Z,100688.58
2023-04-16T01:27:13.000Z,100682.33
2023-04-16T01:28:17.732Z,100687.66
2023-04-16T01:29:22.355Z,100683.19
2023-04-16T01:30:26.332Z,100682.33
2023-04-16T01:31:33.150Z,100672.61
2023-04-16T01:32:38.923Z,100685.02
2023-04-16T01:33:43.486Z,100668.28
2023-04-16T01:34:51.994Z,100671.87
2023-04-16T01:36:02.091Z,100673.52
2023-04-16T01:37:09.511Z,100670.01
2023-04-16T01:38:16.711Z,100675.25
2023-04-16T01:39:23.622Z,100663.80
2023-04-16T01:40:29.296Z,100671.74
2023-04-16T01:41:33.469Z,100670.87
2023-04-16T01:42:37.213Z,100675.25
2023-04-16T01:43:43.857Z,100669.97
2023-04-16T01:44:49.196Z,100673.48
2023-04-16T01:45:55.172Z,100671.74
2023-04-16T01:47:02.818Z,100671.74
2023-04-16T01:48:05.758Z,100666.50
2023-04-16T01:49:09.873Z,100675.21
2023-04-16T01:50:14.132Z,100676.98
2023-04-16T01:51:18.168Z,100675.25
2023-04-16T01:52:21.752Z,100666.58
2023-04-16T01:53:25.678Z,100676.29
2023-04-16T01:54:33.029Z,100677.08
2023-04-16T01:55:38.525Z,100674.44
2023-04-16T01:56:44.563Z,100673.48
2023-04-16T01:57:49.225Z,100677.81
2023-04-16T01:58:56.964Z,100679.73
2023-04-16T02:00:05.060Z,100680.59
2023-04-16T02:01:14.361Z,100672.61
2023-04-16T02:02:21.832Z,100674.44
2023-04-16T02:03:26.478Z,100684.16
2023-04-16T02:04:30.030Z,100676.17
2023-04-16T02:05:33.397Z,100670.87
2023-04-16T02:06:39.864Z,100679.64
2023-04-16T02:07:47.409Z,100677.99
2023-04-16T02:08:53.596Z,100670.87
2023-04-16T02:10:00.735Z,100679.64
2023-04-16T02:11:10.518Z,100669.97
2023-04-16T02:12:20.663Z,100676.98
2023-04-16T02:13:24.388Z,100672.61
2023-04-16T02:14:27.888Z,100674.39
2023-04-16T02:15:33.921Z,100678.72
2023-04-16T02:16:40.518Z,100680.50
2023-04-16T02:18:05.689Z,100684.02
2023-04-16T02:19:10.573Z,100683.19
2023-04-16T02:20:13.788Z,100679.59
2023-04-16T02:21:29.138Z,100675.98
2023-04-16T02:22:33.660Z,100683.10
2023-04-16T02:23:37.946Z,100694.59
2023-04-16T02:24:44.167Z,100686.66
2023-04-16T02:25:49.566Z,100685.80
2023-04-16T02:26:52.972Z,100688.39
2023-04-16T02:27:58.428Z,100684.84
2023-04-16T02:29:06.580Z,100685.70
2023-04-16T02:30:13.536Z,100690.12
2023-04-16T02:31:17.673Z,100693.69
2023-04-16T02:32:23.814Z,100698.06
2023-04-16T02:34:51.643Z,100699.80
2023-04-16T02:35:57.725Z,100699.75
2023-04-16T02:37:01.630Z,100698.93
2023-04-16T02:38:07.170Z,100701.48
2023-04-16T02:39:13.874Z,100694.42
2023-04-16T02:40:19.527Z,100701.48
2023-04-16T02:41:29.432Z,100703.22
2023-04-16T02:42:36.044Z,100697.06
2023-04-16T02:43:43.484Z,100694.42
2023-04-16T02:44:59.541Z,100698.75
2023-04-16T02:46:04.138Z,100699.84
2023-04-16T02:47:08.754Z,100704.23
2023-04-16T02:48:11.491Z,100700.71
2023-04-16T02:49:18.821Z,100697.16
2023-04-16T02:50:26.868Z,100707.69
2023-04-16T02:51:34.156Z,100705.05
2023-04-16T02:52:48.685Z,100702.45
2023-04-16T02:53:54.409Z,100709.47
2023-04-16T02:54:58.299Z,100709.47
2023-04-16T02:56:02.825Z,100714.77
2023-04-16T02:57:07.165Z,100709.47
2023-04-16T02:58:10.454Z,100712.94
2023-04-16T02:59:14.846Z,100709.38
2023-04-16T03:00:22.189Z,100712.07
2023-04-16T03:01:26.527Z,100712.89
2023-04-16T03:02:35.978Z,100710.34
2023-04-16T03:03:43.371Z,100713.03
2023-04-16T03:04:53.656Z,100713.03
2023-04-16T03:05:58.003Z,100715.81
2023-04-16T03:07:02.531Z,100718.41
2023-04-16T03:08:07.239Z,100714.94
2023-04-16T03:10:33.504Z,100714.08
2023-04-16T03:11:38.759Z,100718.41
2023-04-16T03:12:45.248Z,100717.50
2023-04-16T03:13:55.965Z,100715.72
2023-04-16T03:15:03.755Z,100718.32
2023-04-16T03:16:09.154Z,100727.12
2023-04-16T03:17:22.589Z,100721.87
2023-04-16T03:18:27.420Z,100723.56
2023-04-16T03:19:33.427Z,100729.77
2023-04-16T03:20:39.415Z,100728.95
2023-04-16T03:21:44.603Z,100726.99
2023-04-16T03:22:50.632Z,100727.91
2023-04-16T03:23:56.953Z,100728.69
2023-04-16T03:25:01.520Z,100732.28
2023-04-16T03:26:05.716Z,100735.84
2023-04-16T03:27:10.248Z,100727.08
2023-04-16T03:28:15.864Z,100737.63
2023-04-16T03:29:22.357Z,100735.84
2023-04-16T03:30:27.478Z,100738.48
2023-04-16T03:31:32.384Z,100735.02
2023-04-16T03:33:31.045Z,100740.92
2023-04-16T03:34:33.749Z,100738.71
2023-04-16T03:35:36.088Z,100737.84
2023-04-16T03:36:38.775Z,100742.31
2023-04-16T03:37:41.031Z,100739.78
2023-04-16T03:38:43.517Z,100745.08
2023-04-16T03:39:45.936Z,100743.34
2023-04-16T03:40:48.347Z,100742.48
2023-04-16T03:41:50.600Z,100745.98
2023-04-16T03:42:52.967Z,100737.14
2023-04-16T03:43:55.782Z,100745.08
2023-04-16T03:44:58.409Z,100743.22
2023-04-16T03:46:00.797Z,100744.95
2023-04-16T03:47:03.105Z,100736.02
2023-04-16T03:48:05.714Z,100743.13
2023-04-16T03:49:08.358Z,100740.45
2023-04-16T03:50:11.653Z,100748.34
2023-04-16T03:51:14.717Z,100742.22
2023-04-16T03:52:17.071Z,100747.47
2023-04-16T03:53:19.368Z,100743.91
2023-04-16T03:55:29.472Z,100742.66
2023-04-16T03:56:33.002Z,100755.28
2023-04-16T03:57:35.267Z,100750.03
2023-04-16T03:58:39.285Z,100756.19
2023-04-16T03:59:42.886Z,100755.28
2023-04-16T04:00:45.166Z,100749.98
2023-04-16T04:01:48.692Z,100757.02
2023-04-16T04:02:51.101Z,100758.84
2023-04-16T04:03:54.497Z,100750.08
2023-04-16T04:04:56.885Z,100752.63
2023-04-16T04:05:59.117Z,100756.14
2023-04-16T04:07:03.287Z,100751.72
2023-04-16T04:08:06.904Z,100756.89
2023-04-16T04:09:09.329Z,100757.88
2023-04-16T04:10:13.903Z,100757.02
2023-04-16T04:11:16.532Z,100755.98
2023-04-16T04:12:19.062Z,100763.09
2023-04-16T04:13:21.318Z,100763.05
2023-04-16T04:14:23.878Z,100757.71
2023-04-16T04:15:26.066Z,100764.91
2023-04-16T04:16:30.326Z,100761.27
2023-04-16T04:17:34.255Z,100761.31
2023-04-16T04:18:37.650Z,100757.76
2023-04-16T04:19:47.197Z,100765.74
2023-04-16T04:20:45.066Z,100761.39
2023-04-16T04:21:49.710Z,100757.02
2023-04-16T04:22:52.642Z,100762.30
2023-04-16T04:23:57.599Z,100754.32
2023-04-16T04:25:00.538Z,100755.28
2023-04-16T04:26:04.430Z,100757.02
2023-04-16T04:27:06.844Z,100754.36
2023-04-16T04:28:09.075Z,100750.85
2023-04-16T04:29:11.455Z,100760.57
2023-04-16T04:30:14.588Z,100760.57
2023-04-16T04:31:17.105Z,100757.09
2023-04-16T04:32:19.934Z,100752.67
2023-04-16T04:33:24.269Z,100759.61
2023-04-16T04:34:26.893Z,100764.95
2023-04-16T04:35:30.237Z,100763.09
2023-04-16T04:36:33.253Z,100755.16
2023-04-16T04:37:36.327Z,100761.31
2023-04-16T04:38:40.491Z,100763.09
2023-04-16T04:39:43.258Z,100763.05
2023-04-16T04:40:47.769Z,100763.09
2023-04-16T04:41:51.010Z,100759.49
2023-04-16T04:42:53.724Z,100758.63
2023-04-16T04:43:58.636Z,100758.63
2023-04-16T04:45:01.850Z,100755.06
2023-04-16T04:46:06.236Z,100757.76
2023-04-16T04:47:08.591Z,100762.26
2023-04-16T04:48:10.898Z,100760.45
2023-04-16T04:49:19.580Z,100762.19
2023-04-16T04:50:22.900Z,100760.45
2023-04-16T04:51:25.160Z,100757.76
2023-04-16T04:52:27.197Z,100757.80
2023-04-16T04:53:29.514Z,100763.88
2023-04-16T04:54:32.534Z,100763.00
2023-04-16T04:55:36.453Z,100760.36
2023-04-16T04:56:38.687Z,100765.66
2023-04-16T04:57:41.366Z,100767.39
2023-04-16T04:58:43.748Z,100763.92
2023-04-16T04:59:46.084Z,100770.13
2023-04-16T05:00:48.884Z,100770.03
2023-04-16T05:01:51.835Z,100770.95
2023-04-16T05:02:54.184Z,100764.70
2023-04-16T05:03:56.582Z,100773.50
2023-04-16T05:04:59.368Z,100774.38
2023-04-16T05:06:01.702Z,100770.03
2023-04-16T05:07:03.877Z,100764.74
2023-04-16T05:08:06.062Z,100772.68
2023-04-16T05:09:08.936Z,100775.38
2023-04-16T05:10:12.942Z,100776.33
2023-04-16T05:11:15.109Z,100778.93
2023-04-16T05:12:17.218Z,100768.34
2023-04-16T05:13:19.391Z,100769.21
2023-04-16T05:14:21.926Z,100770.95
2023-04-16T05:15:24.016Z,100769.16
2023-04-16T05:16:27.815Z,100774.41
2023-04-16T05:17:30.032Z,100767.39
2023-04-16T05:18:32.146Z,100775.23
2023-04-16T05:19:34.321Z,100772.55
2023-04-16T05:20:37.153Z,100768.08
2023-04-16T05:21:39.417Z,100769.86
2023-04-16T05:22:42.611Z,100776.89
2023-04-16T05:23:44.716Z,100776.06
2023-04-16T05:24:46.880Z,100774.33
2023-04-16T05:25:49.456Z,100775.19
2023-04-16T05:26:51.603Z,100776.06
2023-04-16T05:27:54.647Z,100777.80
2023-04-16T05:28:57.032Z,100776.89
2023-04-16T05:29:59.101Z,100784.00
2023-04-16T05:31:01.386Z,100783.09
2023-04-16T05:32:03.770Z,100781.36
2023-04-16T05:33:05.924Z,100775.19
2023-04-16T05:34:08.122Z,100781.36
2023-04-16T05:35:11.991Z,100781.36
2023-04-16T05:36:14.574Z,100784.83
2023-04-16T05:37:18.030Z,100771.59
2023-04-16T05:38:22.735Z,100777.80
2023-04-16T05:39:25.770Z,100783.09
2023-04-16T05:40:28.205Z,100786.65
2023-04-16T05:41:30.910Z,100784.05
2023-04-16T05:42:35.445Z,100780.53
2023-04-16T05:43:38.233Z,100782.31
2023-04-16T05:44:40.512Z,100781.45
2023-04-16T05:45:42.786Z,100785.83
2023-04-16T05:46:45.813Z,100784.91
2023-04-16T05:47:48.046Z,100778.80
2023-04-16T05:48:50.754Z,100779.70
2023-04-16T05:49:52.918Z,100789.42
2023-04-16T05:50:55.540Z,100786.91
2023-04-16T05:51:57.620Z,100783.56
2023-04-16T05:52:59.778Z,100785.30
2023-04-16T05:54:02.097Z,100785.25
2023-04-16T05:55:04.899Z,100793.19
2023-04-16T05:56:07.784Z,100782.61
2023-04-16T05:57:09.975Z,100781.62
2023-04-16T05:58:12.611Z,100788.64
2023-04-16T05:59:14.787Z,100786.00
2023-04-16T06:00:17.348Z,100788.64
2023-04-16T06:01:20.495Z,100785.95
2023-04-16T06:02:22.976Z,100788.56
2023-04-16T06:03:25.682Z,100791.30
2023-04-16T06:04:27.940Z,100802.70
2023-04-16T06:05:30.198Z,100799.14
2023-04-16T06:06:33.059Z,100798.28
2023-04-16T06:07:35.243Z,100797.32
2023-04-16T06:08:37.319Z,100801.80
2023-04-16T06:09:39.910Z,100800.84
2023-04-16T06:10:42.458Z,100801.70
2023-04-16T06:11:45.054Z,100807.91
2023-04-16T06:12:47.308Z,100807.83
2023-04-16T06:13:49.496Z,100807.95
2023-04-16T06:14:51.568Z,100807.91
2023-04-16T06:15:54.553Z,100813.29
2023-04-16T06:16:56.936Z,100811.55
2023-04-16T06:18:01.021Z,100813.33
2023-04-16T06:19:03.857Z,100814.20
2023-04-16T06:20:06.932Z,100816.84
2023-04-16T06:21:09.159Z,100815.02
2023-04-16T06:22:11.475Z,100814.20
2023-04-16T06:23:13.686Z,100822.09
2023-04-16T06:24:16.224Z,100815.11
2023-04-16T06:25:18.416Z,100816.97
2023-04-16T06:26:20.749Z,100815.11
2023-04-16T06:27:23.523Z,100816.97
2023-04-16T06:28:25.977Z,100813.50
2023-04-16T06:29:40.315Z,100814.45
2023-04-16T06:30:33.618Z,100823.25
2023-04-16T06:31:36.305Z,100821.56
2023-04-16T06:32:39.063Z,100817.14
2023-04-16T06:33:41.458Z,100829.38
2023-04-16T06:34:44.162Z,100827.63
2023-04-16T06:35:46.336Z,100830.33
2023-04-16T06:36:48.518Z,100825.81
2023-04-16T06:37:52.689Z,100823.92
2023-04-16T06:38:54.834Z,100830.08
2023-04-16T06:39:57.013Z,100830.98
2023-04-16T06:40:59.402Z,100824.78
2023-04-16T06:42:02.306Z,100838.14
2023-04-16T06:43:05.183Z,100827.55
2023-04-16T06:44:07.439Z,100836.40
2023-04-16T06:45:11.248Z,100834.66
2023-04-16T06:46:14.394Z,100838.27
2023-04-16T06:47:16.714Z,100845.29
2023-04-16T06:48:18.965Z,100845.33
2023-04-16T06:49:21.260Z,100836.48
2023-04-16T06:50:24.173Z,100840.95
2023-04-16T06:51:26.355Z,100845.33
2023-04-16T06:52:29.435Z,100842.60
2023-04-16T06:53:32.639Z,100842.60
2023-04-16T06:54:35.905Z,100838.14
2023-04-16T06:55:38.183Z,100848.77
2023-04-16T06:56:40.344Z,100851.29
2023-04-16T06:57:42.523Z,100841.58
2023-04-16T06:58:44.688Z,100843.31
2023-04-16T06:59:46.890Z,100848.60
2023-04-16T07:00:49.068Z,100847.73
2023-04-16T07:01:53.095Z,100840.66
2023-04-16T07:02:57.869Z,100848.60
2023-04-16T07:04:00.205Z,100849.59
2023-04-16T07:05:02.562Z,100846.94
2023-04-16T07:06:04.948Z,100852.16
2023-04-16T07:07:07.732Z,100851.25
2023-04-16T07:08:11.031Z,100853.03
2023-04-16T07:09:14.195Z,100861.75
2023-04-16T07:10:17.243Z,100859.19
2023-04-16T07:11:19.422Z,100855.55
2023-04-16T07:12:22.756Z,100853.81
2023-04-16T07:13:25.364Z,100860.88
2023-04-16T07:14:28.131Z,100865.31
2023-04-16T07:15:30.739Z,100867.05
2023-04-16T07:16:33.088Z,100863.57
2023-04-16T07:17:35.168Z,100866.22
2023-04-16T07:18:37.202Z,100859.23
2023-04-16T07:19:39.385Z,100866.30
2023-04-16T07:20:41.696Z,100857.45
2023-04-16T07:21:43.878Z,100860.22
2023-04-16T07:22:46.632Z,100861.13
2023-04-16T07:23:48.800Z,100865.51
2023-04-16T07:24:51.087Z,100863.66
2023-04-16T07:25:53.188Z,100862.75
2023-04-16T07:26:55.501Z,100863.61
2023-04-16T07:27:57.821Z,100859.30
2023-04-16T07:29:00.285Z,100861.84
2023-04-16T07:30:02.618Z,100860.97
2023-04-16T07:31:05.532Z,100857.37
2023-04-16T07:32:08.111Z,100860.84
2023-04-16T07:33:10.506Z,100861.70
2023-04-16T07:34:12.736Z,100864.31
2023-04-16T07:35:15.390Z,100857.20
2023-04-16T07:36:19.160Z,100865.97
2023-04-16T07:37:21.948Z,100858.02
2023-04-16T07:38:24.591Z,100856.25
2023-04-16T07:39:26.640Z,100852.73
2023-04-16T07:40:29.517Z,100865.05
2023-04-16T07:41:31.753Z,100857.00
2023-04-16T07:42:35.071Z,100862.29
2023-04-16T07:43:37.320Z,100860.52
2023-04-16T07:44:39.824Z,100865.77
2023-04-16T07:45:42.531Z,100853.44
2023-04-16T07:46:47.360Z,100864.03
2023-04-16T07:47:49.464Z,100858.81
2023-04-16T07:48:51.598Z,100861.42
2023-04-16T07:49:53.659Z,100858.81
2023-04-16T07:50:56.389Z,100862.29
2023-04-16T07:51:58.769Z,100861.42
2023-04-16T07:53:00.953Z,100863.20
2023-04-16T07:54:03.172Z,100864.98
2023-04-16T07:55:06.324Z,100864.27
2023-04-16T07:56:09.037Z,100860.76
2023-04-16T07:57:11.618Z,100866.01
2023-04-16T07:58:13.793Z,100863.36
2023-04-16T08:00:20.745Z,100868.49
2023-04-16T08:01:23.002Z,100868.45
2023-04-16T08:02:25.908Z,100872.80
2023-04-16T08:03:28.487Z,100876.35
2023-04-16T08:04:31.057Z,100874.53
2023-04-16T08:05:33.680Z,100876.31
2023-04-16T08:06:35.822Z,100868.41
2023-04-16T08:07:37.920Z,100883.38
2023-04-16T08:08:40.037Z,100877.05
2023-04-16T08:09:51.703Z,100877.96
2023-04-16T08:10:55.327Z,100872.75
2023-04-16T08:11:57.604Z,100881.39
2023-04-16T08:13:00.604Z,100872.62
2023-04-16T08:14:02.761Z,100876.02
2023-04-16T08:15:05.981Z,100878.63
2023-04-16T08:16:09.052Z,100878.53
2023-04-16T08:17:12.440Z,100875.98
2023-04-16T08:18:14.705Z,100882.05
2023-04-16T08:19:16.874Z,100876.72
2023-04-16T08:20:19.520Z,100874.98
2023-04-16T08:21:21.775Z,100865.50
2023-04-16T08:22:24.369Z,100881.39
2023-04-16T08:23:26.597Z,100872.67
2023-04-16T08:24:28.755Z,100872.70
2023-04-16T08:25:30.725Z,100872.70
2023-04-16T08:26:33.951Z,100870.14
2023-04-16T08:27:36.168Z,100872.80
2023-04-16T08:28:38.835Z,100867.41
2023-04-16T08:29:40.891Z,100870.84
2023-04-16T08:30:43.174Z,100870.84
2023-04-16T08:31:46.048Z,100869.11
2023-04-16T08:32:50.027Z,100865.55
2023-04-16T08:33:53.008Z,100872.53
2023-04-16T08:34:55.159Z,100873.38
2023-04-16T08:35:57.452Z,100872.42
2023-04-16T08:37:00.108Z,100867.98
2023-04-16T08:38:03.587Z,100865.30
2023-04-16T08:39:05.856Z,100865.20
2023-04-16T08:40:09.095Z,100868.63
2023-04-16T08:41:12.527Z,100865.91
2023-04-16T08:42:30.426Z,100864.95
2023-04-16T08:43:34.040Z,100866.68
2023-04-16T08:44:39.450Z,100870.98
2023-04-16T08:45:42.134Z,100869.16
2023-04-16T08:46:45.845Z,100869.97
2023-04-16T08:47:49.953Z,100866.36
2023-04-16T08:50:04.517Z,100870.35
2023-04-16T08:51:10.678Z,100869.97
2023-04-16T08:52:16.460Z,100871.70
2023-04-16T08:53:22.211Z,100876.02
2023-04-16T08:55:51.359Z,100869.48
2023-04-16T08:56:56.762Z,100878.74
2023-04-16T08:58:00.850Z,100875.14
2023-04-16T08:59:04.776Z,100871.66
2023-04-16T09:00:07.751Z,100876.02
2023-04-16T09:01:10.516Z,100875.14
2023-04-16T09:02:12.927Z,100873.45
2023-04-16T09:03:15.252Z,100878.74
2023-04-16T09:04:19.779Z,100877.05
2023-04-16T09:05:24.493Z,100871.70
2023-04-16T09:06:28.361Z,100874.41
2023-04-16T09:07:33.060Z,100877.09
2023-04-16T09:08:35.982Z,100876.27
2023-04-16T09:09:38.245Z,100874.58
2023-04-16T09:10:40.843Z,100876.49
2023-04-16T09:11:43.637Z,100871.27
2023-04-16T09:12:46.298Z,100873.80
2023-04-16T09:13:48.862Z,100873.76
2023-04-16T09:14:52.272Z,100873.63
2023-04-16T09:15:54.659Z,100868.33
2023-04-16T09:16:57.314Z,100875.31
2023-04-16T09:17:59.506Z,100875.27
2023-04-16T09:19:01.907Z,100869.84
2023-04-16T09:20:08.674Z,100873.32
2023-04-16T09:21:11.640Z,100866.20
2023-04-16T09:22:14.558Z,100875.02
2023-04-16T09:23:17.388Z,100871.49
2023-04-16T09:24:20.622Z,100878.53
2023-04-16T09:25:24.778Z,100876.80
2023-04-16T09:26:27.457Z,100873.23
2023-04-16T09:27:30.421Z,100873.23
2023-04-16T09:28:47.528Z,100876.75
2023-04-16T09:29:49.809Z,100872.27
2023-04-16T09:30:56.182Z,100875.70
2023-04-16T09:32:03.358Z,100879.09
2023-04-16T09:33:14.304Z,100871.22
2023-04-16T09:34:17.742Z,100872.01
2023-04-16T09:35:20.898Z,100877.31
2023-04-16T09:36:23.177Z,100873.75
2023-04-16T09:37:30.428Z,100878.13
2023-04-16T09:39:59.345Z,100872.55
2023-04-16T09:41:08.000Z,100876.52
2023-04-16T09:42:11.941Z,100887.04
2023-04-16T09:43:17.129Z,100884.30
2023-04-16T09:44:19.401Z,100882.47
2023-04-16T09:45:22.180Z,100880.69
2023-04-16T09:47:46.564Z,100883.75
2023-04-16T09:48:48.931Z,100881.60
2023-04-16T09:49:51.634Z,100887.72
2023-04-16T09:50:53.810Z,100881.60
2023-04-16T09:51:56.298Z,100892.16
2023-04-16T09:53:04.125Z,100890.42
2023-04-16T09:54:06.878Z,100891.29
2023-04-16T09:55:09.036Z,100883.38
2023-04-16T09:56:12.684Z,100892.30
2023-04-16T09:58:28.822Z,100896.41
2023-04-16T09:59:31.507Z,100898.50
2023-04-16T10:00:33.895Z,100899.42
2023-04-16T10:01:36.606Z,100896.68
2023-04-16T10:02:40.584Z,100900.15
2023-04-16T10:03:43.012Z,100906.27
2023-04-16T10:04:50.775Z,100901.80
2023-04-16T10:05:53.466Z,100901.75
2023-04-16T10:07:06.850Z,100903.48
2023-04-16T10:08:12.974Z,100903.44
2023-04-16T10:09:15.773Z,100904.45
2023-04-16T10:10:18.178Z,100907.05
2023-04-16T10:11:21.436Z,100907.00
2023-04-16T10:12:23.720Z,100900.79
2023-04-16T10:13:26.783Z,100901.75
2023-04-16T10:14:30.053Z,100907.05
2023-04-16T10:15:33.255Z,100907.09
2023-04-16T10:16:36.111Z,100911.57
2023-04-16T10:17:39.127Z,100911.48
2023-04-16T10:18:43.662Z,100913.22
2023-04-16T10:19:46.530Z,100916.69
2023-04-16T10:20:50.073Z,100916.69
2023-04-16T10:21:54.120Z,100912.18
2023-04-16T10:22:56.977Z,100916.52
2023-04-16T10:23:59.875Z,100914.78
2023-04-16T10:25:03.030Z,100914.73
2023-04-16T10:26:05.824Z,100919.17
2023-04-16T10:27:07.935Z,100914.73
2023-04-16T10:28:12.204Z,100915.61
2023-04-16T10:29:14.709Z,100920.81
2023-04-16T10:30:18.341Z,100919.95
2023-04-16T10:31:20.979Z,100917.34
2023-04-16T10:32:25.501Z,100919.13
2023-04-16T10:33:31.449Z,100920.95
2023-04-16T10:34:35.563Z,100918.30
2023-04-16T10:35:41.268Z,100921.86
2023-04-16T10:36:47.599Z,100921.00
2023-04-16T10:37:49.923Z,100920.08
2023-04-16T10:38:54.939Z,100914.73
2023-04-16T10:39:58.459Z,100915.65
2023-04-16T10:41:05.894Z,100928.08
2023-04-16T10:42:10.259Z,100929.03
2023-04-16T10:43:17.924Z,100925.43
2023-04-16T10:44:20.672Z,100932.59
2023-04-16T10:45:30.008Z,100928.16
2023-04-16T10:46:35.430Z,100925.43
2023-04-16T10:47:40.470Z,100932.47
2023-04-16T10:48:49.742Z,100932.47
2023-04-16T10:49:48.255Z,100930.64
2023-04-16T10:52:15.635Z,100933.70
2023-04-16T10:54:35.282Z,100929.23
2023-04-16T10:55:40.273Z,100927.03
2023-04-16T10:56:44.300Z,100929.68
2023-04-16T10:57:49.025Z,100927.94
2023-04-16T10:58:53.938Z,100928.81
2023-04-16T10:59:56.752Z,100931.41
2023-04-16T11:01:00.385Z,100931.55
2023-04-16T11:02:14.863Z,100935.11
2023-04-16T11:03:18.147Z,100927.16
2023-04-16T11:04:27.022Z,100928.08
2023-04-16T11:05:33.463Z,100929.86
2023-04-16T11:06:37.038Z,100931.67
2023-04-16T11:07:42.810Z,100936.89
2023-04-16T11:08:54.638Z,100929.94
2023-04-16T11:09:59.750Z,100931.72
2023-04-16T11:11:04.788Z,100937.11
2023-04-16T11:12:09.255Z,100932.68
2023-04-16T11:13:12.370Z,100931.86
2023-04-16T11:14:15.359Z,100927.47
2023-04-16T11:15:17.579Z,100935.42
2023-04-16T11:16:20.843Z,100932.77
2023-04-16T11:17:27.295Z,100924.77
2023-04-16T11:18:29.678Z,100929.98
2023-04-16T11:19:32.813Z,100929.03
2023-04-16T11:20:35.021Z,100935.07
2023-04-16T11:21:37.847Z,100937.67
2023-04-16T11:22:41.967Z,100926.98
2023-04-16T11:23:49.870Z,100931.33
2023-04-16T11:24:56.429Z,100928.72
2023-04-16T11:25:58.633Z,100933.06
2023-04-16T11:27:01.353Z,100927.71
2023-04-16T11:28:03.884Z,100929.50
2023-04-16T11:29:10.239Z,100937.27
2023-04-16T11:30:14.175Z,100934.63
2023-04-16T11:31:16.439Z,100931.02
2023-04-16T11:32:21.928Z,100928.31
2023-04-16T11:33:24.842Z,100930.05
2023-04-16T11:34:27.690Z,100932.70
2023-04-16T11:35:30.292Z,100937.05
2023-04-16T11:36:46.314Z,100929.91
2023-04-16T11:37:48.560Z,100936.08
2023-04-16T11:38:50.745Z,100935.95
2023-04-16T11:39:53.429Z,100934.17
2023-04-16T11:40:56.089Z,100935.04
2023-04-16T11:41:58.967Z,100937.64
2023-04-16T11:43:15.459Z,100940.34
2023-04-16T11:44:25.791Z,100940.47
2023-04-16T11:45:28.085Z,100949.12
2023-04-16T11:46:39.767Z,100939.38
2023-04-16T11:48:56.414Z,100947.73
2023-04-16T11:50:19.153Z,100938.51
2023-04-16T11:51:21.437Z,100940.25
2023-04-16T11:52:31.802Z,100939.28
2023-04-16T11:53:35.335Z,100934.80
2023-04-16T11:54:38.121Z,100936.58
2023-04-16T11:55:43.779Z,100944.39
2023-04-16T11:56:47.597Z,100937.27
2023-04-16T11:57:50.875Z,100939.01
2023-04-16T11:59:13.088Z,100938.09
2023-04-16T12:00:17.228Z,100936.36
2023-04-16T12:01:22.320Z,100934.53
2023-04-16T12:03:58.829Z,100920.05
2023-04-16T12:05:03.658Z,100931.19
2023-04-16T12:06:09.973Z,100920.45
2023-04-16T12:07:14.685Z,100926.56
2023-04-16T12:08:28.764Z,100922.18
2023-04-16T12:09:30.983Z,100922.18
2023-04-16T12:10:35.370Z,100931.05
2023-04-16T12:11:38.904Z,100921.36
2023-04-16T12:12:41.008Z,100932.84
2023-04-16T12:13:43.075Z,100927.62
2023-04-16T12:15:58.652Z,100920.25
2023-04-16T12:17:20.805Z,100926.84
2023-04-16T12:18:24.973Z,100925.88
2023-04-16T12:19:28.290Z,100927.48
2023-04-16T12:20:36.433Z,100926.47
2023-04-16T12:21:40.377Z,100921.17
2023-04-16T12:22:48.489Z,100918.42
2023-04-16T12:23:52.878Z,100916.59
2023-04-16T12:24:59.662Z,100919.23
2023-04-16T12:27:10.109Z,100917.45
2023-04-16T12:28:12.422Z,100922.63
2023-04-16T12:29:23.193Z,100920.84
2023-04-16T12:30:26.058Z,100928.70
2023-04-16T12:31:37.482Z,100924.16
2023-04-16T12:32:41.506Z,100927.58
2023-04-16T12:33:44.416Z,100922.17
2023-04-16T12:34:51.472Z,100911.56